Time;durP1;ratioP1;P1;durP2;ratioP2;P2;SDS_P1;SDS_P2;PMS_P1;PMS_P2;Temp;Humidity;BMP_temperature;BMP_pressure;BME280_temperature;BME280_humidity;BME280_pressure;Samples;Min_cycle;Max_cycle;Signal;HPM_P1;HPM_P2
2021/04/17 04:14:06;;;;;;;2.85;1.33;;;1.90;99.90;;;;;;5051327;28;20467;-65
2021/04/17 04:16:32;;;;;;;5.30;1.50;;;2.30;99.90;;;;;;5037080;28;20045;-65
2021/04/17 04:18:58;;;;;;;1.85;1.27;;;2.70;99.90;;;;;;5038781;28;20017;-64
2021/04/17 04:21:24;;;;;;;2.78;1.48;;;3.10;99.90;;;;;;5052173;28;20060;-65
2021/04/17 04:23:49;;;;;;;2.70;1.35;;;3.40;99.90;;;;;;5040822;28;20021;-65
2021/04/17 04:26:15;;;;;;;4.63;1.25;;;3.70;98.30;;;;;;5037564;28;20507;-64
2021/04/17 04:28:41;;;;;;;1.80;1.30;;;4.10;96.40;;;;;;5051721;28;20112;-65
2021/04/17 04:31:07;;;;;;;1.85;1.38;;;4.40;94.40;;;;;;5051565;28;20119;-68
2021/04/17 04:33:32;;;;;;;2.10;1.30;;;4.70;92.70;;;;;;5051688;28;20056;-65
2021/04/17 04:35:58;;;;;;;2.47;0.98;;;4.90;91.20;;;;;;5037741;28;20121;-64
2021/04/17 04:38:24;;;;;;;1.48;1.10;;;5.30;99.90;;;;;;5051489;28;20032;-65
2021/04/17 04:40:49;;;;;;;2.28;1.20;;;7.40;99.90;;;;;;5051472;28;20083;-65
2021/04/17 04:43:15;;;;;;;1.70;1.33;;;7.60;78.20;;;;;;5039371;28;20034;-65
2021/04/17 04:45:41;;;;;;;1.77;1.25;;;7.30;76.80;;;;;;5045066;28;20025;-64
2021/04/17 04:48:10;;;;;;;1.30;0.95;;;7.00;77.20;;;;;;5047164;28;20021;-65
2021/04/17 04:50:39;;;;;;;2.22;1.20;;;6.90;76.80;;;;;;5050919;28;20028;-66
2021/04/17 04:53:05;;;;;;;0.73;0.73;;;7.00;77.10;;;;;;5048000;28;20024;-66
2021/04/17 04:55:31;;;;;;;3.47;1.13;;;7.10;76.30;;;;;;5045532;28;20028;-66
2021/04/17 04:57:57;;;;;;;1.42;1.00;;;7.20;75.10;;;;;;5040946;28;20087;-66
2021/04/17 05:00:24;;;;;;;2.60;0.88;;;7.30;74.70;;;;;;5041145;28;20052;-66
2021/04/17 05:02:49;;;;;;;1.98;0.98;;;7.50;73.80;;;;;;5050466;28;20021;-66
2021/04/17 05:05:16;;;;;;;1.40;1.10;;;7.70;72.90;;;;;;5045830;28;20033;-66
2021/04/17 05:07:42;;;;;;;2.78;1.08;;;7.90;71.70;;;;;;5046366;28;20365;-65
2021/04/17 05:10:08;;;;;;;1.02;0.93;;;8.10;71.00;;;;;;5047833;28;20020;-66
2021/04/17 05:12:34;;;;;;;1.38;0.90;;;8.20;70.10;;;;;;5049674;28;20048;-66
2021/04/17 05:15:00;;;;;;;2.20;1.08;;;8.40;70.10;;;;;;5048054;28;20436;-67
2021/04/17 05:17:26;;;;;;;1.13;1.00;;;8.60;68.60;;;;;;5036906;28;20041;-66
2021/04/17 05:19:53;;;;;;;1.70;1.10;;;8.70;67.90;;;;;;5043076;28;20056;-65
2021/04/17 05:22:19;;;;;;;2.65;0.98;;;8.90;67.50;;;;;;5041704;28;20032;-66
2021/04/17 05:24:46;;;;;;;7.53;1.20;;;9.10;66.60;;;;;;5040903;28;20021;-65
2021/04/17 05:27:12;;;;;;;1.85;1.05;;;9.40;66.60;;;;;;5050773;28;20044;-66
2021/04/17 05:29:38;;;;;;;2.70;1.20;;;9.60;65.30;;;;;;5051356;28;20469;-66
2021/04/17 05:32:04;;;;;;;1.02;0.90;;;9.70;64.50;;;;;;5033251;28;20037;-66
2021/04/17 05:34:30;;;;;;;1.60;1.00;;;9.90;63.90;;;;;;5046666;28;20384;-66
2021/04/17 05:36:55;;;;;;;1.85;1.15;;;10.00;63.60;;;;;;5050802;28;20112;-66
2021/04/17 05:39:21;;;;;;;0.98;0.90;;;10.20;63.10;;;;;;5037371;28;20022;-66
2021/04/17 05:41:47;;;;;;;2.03;1.02;;;10.30;62.50;;;;;;5043285;28;20402;-66
2021/04/17 05:44:13;;;;;;;1.83;1.13;;;10.40;62.50;;;;;;5033201;28;20026;-66
2021/04/17 05:46:43;;;;;;;1.70;0.88;;;10.70;61.90;;;;;;5031384;28;20110;-66
2021/04/17 05:49:09;;;;;;;;;;;10.90;61.10;;;;;;5040645;28;20052;-67
2021/04/17 05:51:37;;;;;;;1.55;1.00;;;10.90;59.90;;;;;;5047305;28;20216;-67
2021/04/17 05:54:04;;;;;;;2.65;1.08;;;10.90;60.30;;;;;;5035040;28;20028;-68
2021/04/17 05:56:30;;;;;;;2.10;0.85;;;11.10;59.90;;;;;;5030855;28;20396;-67
2021/04/17 05:58:56;;;;;;;1.17;0.90;;;11.20;59.80;;;;;;5038596;28;20128;-67
2021/04/17 06:01:22;;;;;;;3.40;0.95;;;11.40;59.30;;;;;;5030861;28;20426;-66
2021/04/17 06:03:48;;;;;;;2.28;1.20;;;11.50;60.50;;;;;;5041574;28;20029;-67
2021/04/17 06:06:14;;;;;;;2.92;1.10;;;11.70;59.30;;;;;;5030697;28;20358;-67
2021/04/17 06:08:40;;;;;;;2.75;1.27;;;11.70;58.40;;;;;;5047656;28;20021;-66
2021/04/17 06:11:06;;;;;;;3.95;1.00;;;11.70;58.50;;;;;;5041056;28;20033;-67
2021/04/17 06:13:35;;;;;;;1.33;0.68;;;12.20;66.00;;;;;;5047504;28;20017;-67
2021/04/17 06:16:02;;;;;;;2.13;0.80;;;13.10;64.90;;;;;;5042078;28;20063;-67
2021/04/17 06:18:28;;;;;;;2.20;0.77;;;14.00;64.90;;;;;;5043361;28;20025;-70
2021/04/17 06:20:53;;;;;;;1.80;0.93;;;14.50;60.40;;;;;;5050852;28;20021;-69
2021/04/17 06:23:20;;;;;;;1.85;0.70;;;14.00;54.90;;;;;;5041971;28;20474;-69
2021/04/17 06:25:46;;;;;;;1.35;0.85;;;13.40;55.30;;;;;;5047099;28;20036;-68
2021/04/17 06:28:12;;;;;;;1.63;0.82;;;13.00;55.90;;;;;;5045088;28;20021;-68
2021/04/17 06:30:38;;;;;;;2.42;0.88;;;12.80;56.40;;;;;;5053716;28;20079;-68
2021/04/17 06:33:04;;;;;;;2.03;0.70;;;12.70;56.40;;;;;;5044043;28;20036;-68
2021/04/17 06:35:30;;;;;;;2.88;0.90;;;12.60;56.50;;;;;;5038484;28;20025;-68
2021/04/17 06:37:57;;;;;;;1.30;0.90;;;12.50;56.40;;;;;;5039715;28;20124;-68
2021/04/17 06:40:23;;;;;;;4.57;0.95;;;12.40;56.60;;;;;;5047557;28;20353;-68
2021/04/17 06:42:51;;;;;;;3.13;1.20;;;12.40;56.80;;;;;;5052451;28;20025;-68
2021/04/17 06:45:21;;;;;;;3.08;0.90;;;12.30;56.80;;;;;;5042071;28;20022;-68
2021/04/17 06:47:48;;;;;;;1.13;0.90;;;12.40;56.80;;;;;;5050906;28;20021;-68
2021/04/17 06:50:15;;;;;;;2.30;0.90;;;12.30;56.70;;;;;;5034352;28;20512;-68
2021/04/17 06:52:41;;;;;;;3.03;1.00;;;12.30;57.00;;;;;;5042801;28;20029;-68
2021/04/17 06:55:09;;;;;;;3.03;1.10;;;12.30;57.10;;;;;;5053875;28;20392;-65
2021/04/17 06:57:36;;;;;;;2.13;1.13;;;12.30;57.10;;;;;;5048032;28;20033;-65
2021/04/17 07:00:05;;;;;;;2.20;1.10;;;12.50;59.40;;;;;;5036432;28;20029;-65
2021/04/17 07:02:31;;;;;;;5.50;0.90;;;12.70;58.90;;;;;;5035782;28;20037;-66
2021/04/17 07:04:57;;;;;;;1.67;0.90;;;12.80;58.20;;;;;;5052647;28;20036;-66
2021/04/17 07:07:23;;;;;;;2.05;0.90;;;12.90;57.80;;;;;;5053791;28;20025;-65
2021/04/17 07:09:51;;;;;;;5.97;0.90;;;12.90;57.10;;;;;;5053465;28;20039;-65
2021/04/17 07:12:17;;;;;;;0.70;0.68;;;12.90;57.10;;;;;;5053679;28;20496;-65
2021/04/17 07:14:42;;;;;;;3.33;0.90;;;12.90;56.80;;;;;;5053112;28;20045;-66
2021/04/17 07:17:09;;;;;;;3.33;1.00;;;12.80;56.70;;;;;;5053683;28;20085;-65
2021/04/17 07:20:01;;;;;;;1.92;0.82;;;12.70;57.00;;;;;;5053681;28;20086;-70
2021/04/17 07:22:33;;;;;;;2.67;0.70;;;12.50;56.50;;;;;;5043311;28;20017;-70
2021/04/17 07:25:04;;;;;;;2.80;0.82;;;12.40;56.90;;;;;;5052429;28;20696;-71
2021/04/17 07:27:36;;;;;;;1.42;0.90;;;12.30;57.00;;;;;;5044801;28;20030;-70
2021/04/17 07:30:23;;;;;;;3.17;0.98;;;12.20;57.10;;;;;;5049785;28;20109;-70
2021/04/17 07:33:09;;;;;;;2.63;1.23;;;12.20;57.40;;;;;;5052934;28;20029;-70
2021/04/17 07:35:51;;;;;;;3.65;0.82;;;12.00;57.40;;;;;;5052616;28;20025;-70
2021/04/17 07:38:21;;;;;;;3.47;0.90;;;11.90;57.70;;;;;;5051531;28;20186;-68
2021/04/17 07:41:13;;;;;;;3.33;0.90;;;11.80;57.80;;;;;;5053235;28;20127;-68
2021/04/17 07:44:01;;;;;;;2.13;0.70;;;11.80;58.10;;;;;;5049283;28;20037;-67
2021/04/17 07:46:47;;;;;;;4.35;0.75;;;11.80;59.40;;;;;;5050471;28;20040;-67
2021/04/17 07:49:21;;;;;;;3.97;1.20;;;11.80;58.10;;;;;;5051013;28;20029;-67
2021/04/17 07:52:10;;;;;;;5.72;1.00;;;11.70;58.30;;;;;;5052515;28;20031;-66
2021/04/17 07:54:36;;;;;;;5.18;0.95;;;11.60;58.30;;;;;;5053306;28;20029;-66
2021/04/17 07:57:04;;;;;;;3.42;0.90;;;11.50;58.80;;;;;;5053138;28;20033;-66
2021/04/17 07:59:31;;;;;;;1.05;0.70;;;11.60;59.70;;;;;;5053022;28;20450;-66
2021/04/17 08:01:57;;;;;;;1.88;0.98;;;11.60;60.30;;;;;;5053025;28;20086;-66
2021/04/17 08:04:30;;;;;;;5.55;1.00;;;11.70;60.90;;;;;;5052751;28;20090;-65
2021/04/17 08:06:57;;;;;;;3.55;0.85;;;11.80;61.70;;;;;;5052630;28;20082;-65
2021/04/17 08:09:25;;;;;;;6.95;1.40;;;12.60;66.40;;;;;;5052916;28;20029;-65
2021/04/17 08:11:54;;;;;;;5.00;0.82;;;13.40;66.70;;;;;;5052921;28;20068;-64
2021/04/17 08:14:22;;;;;;;6.97;2.25;;;13.90;64.80;;;;;;5052025;28;20111;-65
2021/04/17 08:16:52;;;;;;;3.97;0.88;;;14.20;64.90;;;;;;5052772;28;20492;-66
2021/04/17 08:19:19;;;;;;;4.18;1.00;;;14.40;59.00;;;;;;5052587;28;20089;-66
2021/04/17 08:21:47;;;;;;;1.35;0.85;;;14.00;56.80;;;;;;5052699;28;20029;-66
2021/04/17 08:24:19;;;;;;;0.93;0.70;;;13.50;55.70;;;;;;5052651;28;20055;-66
2021/04/17 08:26:45;;;;;;;2.80;0.77;;;13.10;55.80;;;;;;5052699;28;20021;-66
2021/04/17 08:29:10;;;;;;;1.58;0.80;;;12.70;56.20;;;;;;5052510;28;20029;-66
2021/04/17 08:31:38;;;;;;;1.83;0.90;;;12.50;56.10;;;;;;5052231;28;20078;-66
2021/04/17 08:34:07;;;;;;;17.35;1.45;;;12.40;56.70;;;;;;5051693;28;20112;-66
2021/04/17 08:36:38;;;;;;;1.75;0.75;;;12.40;57.50;;;;;;5051632;28;20044;-66
2021/04/17 08:39:06;;;;;;;1.38;0.75;;;12.40;57.40;;;;;;5051902;28;20047;-66
2021/04/17 08:41:39;;;;;;;6.85;0.95;;;12.40;57.00;;;;;;5048919;28;20492;-66
2021/04/17 08:44:26;;;;;;;3.53;1.00;;;12.30;56.90;;;;;;5051228;28;20017;-66
2021/04/17 08:46:53;;;;;;;4.78;0.70;;;12.30;57.80;;;;;;5049023;28;20025;-66
2021/04/17 08:49:25;;;;;;;5.90;1.80;;;12.40;57.30;;;;;;5051252;28;20040;-66
2021/04/17 08:51:52;;;;;;;4.75;1.10;;;12.40;57.10;;;;;;5051270;28;20029;-66
2021/04/17 08:54:20;;;;;;;6.43;1.00;;;12.40;56.80;;;;;;5051356;28;20484;-66
2021/04/17 08:56:49;;;;;;;1.90;0.65;;;12.40;56.90;;;;;;5050391;28;20380;-65
2021/04/17 08:59:35;;;;;;;4.50;1.20;;;12.40;56.30;;;;;;5051717;28;20029;-66
2021/04/17 09:02:06;;;;;;;6.22;0.90;;;12.40;56.00;;;;;;5051339;28;20025;-66
2021/04/17 09:04:35;;;;;;;12.65;1.13;;;12.40;56.60;;;;;;5051524;28;20465;-66
2021/04/17 09:07:13;;;;;;;2.15;1.20;;;12.50;57.20;;;;;;5051513;28;20037;-66
2021/04/17 09:09:39;;;;;;;2.55;1.02;;;12.60;56.90;;;;;;5051410;28;20033;-66
2021/04/17 09:12:04;;;;;;;3.28;2.03;;;12.70;56.70;;;;;;5051454;28;20083;-66
2021/04/17 09:14:33;;;;;;;6.53;2.40;;;12.80;56.20;;;;;;5050153;28;20025;-67
2021/04/17 09:17:24;;;;;;;11.13;1.27;;;13.20;59.10;;;;;;5051343;28;20029;-69
2021/04/17 09:19:50;;;;;;;11.73;3.80;;;13.20;55.50;;;;;;5050570;28;20037;-65
2021/04/17 09:22:43;;;;;;;2.40;1.10;;;13.10;55.70;;;;;;5049119;28;20025;-65
2021/04/17 09:25:12;;;;;;;5.50;1.92;;;13.00;54.90;;;;;;5047569;28;20040;-65
2021/04/17 09:27:39;;;;;;;3.15;0.77;;;13.00;55.00;;;;;;5048842;28;20473;-65
2021/04/17 09:30:05;;;;;;;5.15;1.10;;;13.00;54.60;;;;;;5051487;28;20040;-65
2021/04/17 09:32:40;;;;;;;33.55;2.47;;;13.00;53.50;;;;;;5051165;28;20032;-65
2021/04/17 09:35:15;;;;;;;45.83;2.08;;;13.10;54.50;;;;;;5051185;28;20035;-65
2021/04/17 09:37:42;;;;;;;8.05;1.30;;;13.20;55.00;;;;;;5050724;28;20144;-65
2021/04/17 09:40:10;;;;;;;14.65;1.60;;;13.30;53.70;;;;;;5052550;28;20469;-65
2021/04/17 09:42:37;;;;;;;24.20;2.10;;;13.30;52.90;;;;;;5050875;28;20039;-65
2021/04/17 09:45:08;;;;;;;4.60;1.70;;;13.40;53.40;;;;;;5051437;28;20025;-65
2021/04/17 09:47:34;;;;;;;3.72;0.80;;;13.50;53.10;;;;;;5050508;28;20021;-65
2021/04/17 09:50:00;;;;;;;1.58;0.60;;;13.60;52.30;;;;;;5055077;28;20018;-65
2021/04/17 09:52:27;;;;;;;3.28;0.60;;;13.50;51.70;;;;;;5055416;28;20362;-64
2021/04/17 09:55:05;;;;;;;5.38;0.70;;;13.50;52.00;;;;;;5055759;28;20017;-65
2021/04/17 09:57:32;;;;;;;4.90;1.10;;;13.40;51.60;;;;;;5055305;28;20485;-66
2021/04/17 09:59:59;;;;;;;0.90;0.57;;;13.40;52.10;;;;;;5055629;28;20033;-66
2021/04/17 10:02:40;;;;;;;6.05;0.88;;;13.50;52.70;;;;;;5055272;28;20594;-66
2021/04/17 10:05:06;;;;;;;5.88;1.17;;;13.60;52.50;;;;;;5055674;28;20028;-65
2021/04/17 10:07:50;;;;;;;37.38;2.90;;;13.60;51.30;;;;;;5055396;28;20025;-66
2021/04/17 10:10:17;;;;;;;3.63;0.77;;;13.70;52.20;;;;;;5055461;28;20043;-66
2021/04/17 10:12:50;;;;;;;5.88;1.40;;;13.80;52.00;;;;;;5054997;28;20021;-66
2021/04/17 10:15:25;;;;;;;8.05;1.02;;;13.80;51.50;;;;;;5054914;28;20049;-66
2021/04/17 10:17:53;;;;;;;8.32;1.38;;;13.90;51.50;;;;;;5054892;28;20106;-66
2021/04/17 10:20:20;;;;;;;10.25;1.58;;;14.00;53.00;;;;;;5055118;28;20372;-65
2021/04/17 10:22:59;;;;;;;6.80;1.95;;;14.00;51.40;;;;;;5054821;28;20082;-66
2021/04/17 10:25:45;;;;;;;4.00;1.30;;;14.00;51.20;;;;;;5054851;28;20116;-66
2021/04/17 10:28:20;;;;;;;1.92;0.85;;;14.00;50.80;;;;;;5055093;28;20052;-66
2021/04/17 10:30:55;;;;;;;2.40;0.95;;;14.00;51.80;;;;;;5054991;28;20033;-66
2021/04/17 10:33:22;;;;;;;2.33;0.82;;;14.00;51.20;;;;;;5034790;28;20034;-66
2021/04/17 10:35:50;;;;;;;2.15;0.63;;;14.00;50.70;;;;;;5034825;28;20029;-66
2021/04/17 10:38:28;;;;;;;3.65;0.57;;;13.90;50.40;;;;;;5034891;28;20069;-66
2021/04/17 10:40:59;;;;;;;3.20;0.50;;;13.80;50.00;;;;;;5034692;28;20026;-66
2021/04/17 10:43:26;;;;;;;5.03;0.77;;;13.80;50.20;;;;;;5034459;28;20037;-66
2021/04/17 10:46:03;;;;;;;1.38;0.40;;;13.80;49.70;;;;;;5034892;28;20032;-66
2021/04/17 10:48:43;;;;;;;1.42;0.60;;;13.70;49.90;;;;;;5034700;28;20022;-66
2021/04/17 10:51:15;;;;;;;6.82;0.70;;;13.70;50.40;;;;;;5034653;28;20029;-66
2021/04/17 10:53:51;;;;;;;2.40;0.65;;;13.70;50.20;;;;;;5034422;28;20037;-65
2021/04/17 10:56:21;;;;;;;17.63;1.98;;;13.80;50.20;;;;;;5034824;28;20029;-66
2021/04/17 10:59:00;;;;;;;2.40;1.10;;;13.90;52.60;;;;;;5033178;28;20552;-65
2021/04/17 11:01:29;;;;;;;4.05;1.05;;;14.00;50.50;;;;;;5034352;28;20053;-65
2021/04/17 11:03:58;;;;;;;1.60;0.60;;;14.00;50.00;;;;;;5034160;28;20574;-65
2021/04/17 11:06:25;;;;;;;6.28;0.70;;;13.90;49.80;;;;;;5042716;28;20031;-65
2021/04/17 11:09:04;;;;;;;1.20;0.50;;;13.90;49.90;;;;;;5052041;28;20384;-65
2021/04/17 11:11:30;;;;;;;11.48;1.25;;;13.90;49.60;;;;;;5053152;28;20021;-65
2021/04/17 11:13:58;;;;;;;2.80;0.80;;;13.90;50.10;;;;;;5050738;28;20473;-65
2021/04/17 11:16:38;;;;;;;12.23;0.85;;;14.00;50.00;;;;;;5053002;28;20049;-65
2021/04/17 11:19:05;;;;;;;5.65;0.98;;;14.10;49.90;;;;;;5051815;28;20035;-65
2021/04/17 11:21:32;;;;;;;10.27;1.15;;;14.10;53.50;;;;;;5053278;28;20526;-65
2021/04/17 11:24:02;;;;;;;3.53;1.55;;;14.30;50.10;;;;;;5053408;28;20040;-65
2021/04/17 11:26:38;;;;;;;2.08;0.75;;;14.30;49.30;;;;;;5053379;28;20025;-65
2021/04/17 11:29:04;;;;;;;1.80;0.50;;;14.20;48.90;;;;;;5051336;28;20037;-65
2021/04/17 11:31:32;;;;;;;20.75;1.27;;;14.20;48.30;;;;;;5053295;28;20102;-65
2021/04/17 11:34:00;;;;;;;4.95;1.13;;;14.10;47.90;;;;;;5053557;28;20033;-64
2021/04/17 11:36:28;;;;;;;34.85;3.05;;;14.30;57.40;;;;;;5053330;28;20025;-66
2021/04/17 11:38:54;;;;;;;14.60;1.30;;;14.60;55.80;;;;;;5053659;28;20036;-66
2021/04/17 11:41:22;;;;;;;21.08;2.72;;;14.60;49.60;;;;;;5053501;28;20523;-66
2021/04/17 11:43:48;;;;;;;11.98;1.38;;;14.50;48.30;;;;;;5053237;28;20039;-65
2021/04/17 11:46:15;;;;;;;16.70;1.40;;;14.30;50.00;;;;;;5053598;28;20039;-65
2021/04/17 11:48:43;;;;;;;15.27;1.95;;;14.00;50.00;;;;;;5053417;28;20029;-65
2021/04/17 11:51:10;;;;;;;19.92;1.63;;;13.90;50.20;;;;;;5053447;28;20028;-65
2021/04/17 11:53:38;;;;;;;5.68;1.27;;;13.70;51.00;;;;;;5052984;28;20477;-65
2021/04/17 11:56:04;;;;;;;53.72;3.97;;;13.60;51.40;;;;;;5053207;28;20468;-65
2021/04/17 11:58:30;;;;;;;4.18;1.08;;;13.60;51.50;;;;;;5053117;28;20035;-65
2021/04/17 12:00:55;;;;;;;9.88;1.90;;;13.50;52.00;;;;;;5053153;28;20021;-65
2021/04/17 12:03:22;;;;;;;3.47;0.95;;;13.50;52.90;;;;;;5048110;28;20041;-64
2021/04/17 12:05:50;;;;;;;7.70;1.23;;;13.70;55.20;;;;;;5032959;28;20029;-65
2021/04/17 12:08:16;;;;;;;22.15;2.08;;;13.70;52.40;;;;;;5033310;28;20045;-64
2021/04/17 12:10:42;;;;;;;13.23;1.70;;;13.60;51.60;;;;;;5032744;28;20478;-65
2021/04/17 12:13:08;;;;;;;34.70;2.70;;;13.50;53.10;;;;;;5036432;28;20029;-64
2021/04/17 12:15:34;;;;;;;415.25;23.13;;;13.50;52.00;;;;;;5052438;28;20416;-65
2021/04/17 12:17:59;;;;;;;6.53;1.58;;;13.40;51.40;;;;;;5052782;28;20045;-64
2021/04/17 12:20:25;;;;;;;7.45;1.55;;;13.40;51.50;;;;;;5052810;28;20029;-64
2021/04/17 12:22:51;;;;;;;22.15;2.25;;;13.40;51.00;;;;;;5052679;28;20480;-64
2021/04/17 12:25:18;;;;;;;5.18;1.60;;;13.40;51.60;;;;;;5052305;28;20031;-65
2021/04/17 12:27:44;;;;;;;9.13;1.58;;;13.40;50.90;;;;;;5051277;28;20412;-64
2021/04/17 12:30:10;;;;;;;6.32;1.40;;;13.30;50.70;;;;;;5052659;28;20025;-65
2021/04/17 12:32:36;;;;;;;15.48;2.20;;;13.30;50.90;;;;;;5052164;28;20033;-65
2021/04/17 12:35:03;;;;;;;9.32;2.13;;;13.30;52.00;;;;;;5052437;28;20111;-65
2021/04/17 12:37:29;;;;;;;7.90;2.45;;;13.40;51.30;;;;;;5052038;28;20469;-65
2021/04/17 12:39:55;;;;;;;21.98;1.67;;;13.40;50.80;;;;;;5052281;28;20021;-65
2021/04/17 12:42:20;;;;;;;9.23;1.20;;;13.30;50.50;;;;;;5052184;28;20032;-65
2021/04/17 12:44:46;;;;;;;55.00;3.25;;;13.40;51.20;;;;;;5052003;28;20024;-67
2021/04/17 12:47:12;;;;;;;35.50;1.88;;;13.50;51.20;;;;;;5052143;28;20025;-64
2021/04/17 12:49:38;;;;;;;13.90;1.52;;;13.50;51.40;;;;;;5052244;28;20021;-64
2021/04/17 12:52:04;;;;;;;28.17;1.98;;;13.50;51.00;;;;;;5052538;28;20086;-64
2021/04/17 12:54:31;;;;;;;98.60;5.78;;;13.60;51.20;;;;;;5052086;28;20108;-64
2021/04/17 12:56:57;;;;;;;15.82;1.67;;;13.60;51.00;;;;;;5052064;28;20510;-64
2021/04/17 12:59:23;;;;;;;17.20;1.20;;;13.60;50.50;;;;;;5051866;28;20028;-64
2021/04/17 13:01:48;;;;;;;11.20;1.35;;;13.50;50.50;;;;;;5052103;28;20067;-64
2021/04/17 13:04:14;;;;;;;28.63;2.47;;;13.50;50.70;;;;;;5051944;28;20153;-64
2021/04/17 13:06:40;;;;;;;26.52;2.22;;;13.50;51.20;;;;;;5052049;28;20025;-64
2021/04/17 13:09:06;;;;;;;5.82;1.38;;;13.40;50.70;;;;;;5051661;28;20416;-64
2021/04/17 13:11:32;;;;;;;7.63;1.20;;;13.40;51.10;;;;;;5051723;28;21331;-65
2021/04/17 13:13:57;;;;;;;5.13;1.10;;;13.40;51.70;;;;;;5037194;28;20477;-65
2021/04/17 13:16:23;;;;;;;9.45;1.52;;;13.40;50.90;;;;;;5033744;28;20042;-65
2021/04/17 13:18:49;;;;;;;67.82;4.05;;;13.40;51.00;;;;;;5031901;28;20108;-65
2021/04/17 13:21:14;;;;;;;2.70;1.00;;;13.50;51.50;;;;;;5031792;28;20025;-65
2021/04/17 13:23:40;;;;;;;54.30;3.17;;;13.40;50.90;;;;;;5031518;28;20025;-64
2021/04/17 13:26:06;;;;;;;39.25;2.80;;;13.50;50.20;;;;;;5031953;28;20017;-65
2021/04/17 13:28:32;;;;;;;19.05;1.65;;;13.50;51.20;;;;;;5031721;28;20030;-67
2021/04/17 13:30:58;;;;;;;27.17;2.08;;;13.50;51.40;;;;;;5032112;28;20033;-67
2021/04/17 13:33:24;;;;;;;19.23;2.20;;;13.60;51.30;;;;;;5031711;28;20021;-67
2021/04/17 13:35:50;;;;;;;9.07;1.40;;;13.60;50.50;;;;;;5031596;28;20025;-67
2021/04/17 13:38:16;;;;;;;11.10;1.10;;;13.50;50.30;;;;;;5031748;28;20044;-67
2021/04/17 13:40:41;;;;;;;4.03;1.15;;;13.50;50.40;;;;;;5031671;28;20022;-67
2021/04/17 13:43:07;;;;;;;21.20;2.15;;;13.40;51.10;;;;;;5031782;28;20052;-67
2021/04/17 13:45:33;;;;;;;8.02;0.98;;;13.50;50.70;;;;;;5031657;28;20029;-67
2021/04/17 13:47:59;;;;;;;21.48;2.13;;;13.40;51.80;;;;;;5032156;28;20029;-67
2021/04/17 13:50:25;;;;;;;10.77;1.45;;;13.40;50.90;;;;;;5031813;28;20527;-66
2021/04/17 13:52:50;;;;;;;26.10;1.50;;;13.30;50.00;;;;;;5032000;28;20164;-67
2021/04/17 13:55:16;;;;;;;8.38;1.40;;;13.20;50.70;;;;;;5031654;28;20022;-67
2021/04/17 13:57:42;;;;;;;9.60;1.35;;;13.10;50.70;;;;;;5031578;28;20029;-67
2021/04/17 14:00:10;;;;;;;7.07;1.48;;;13.10;50.40;;;;;;5031574;28;20021;-67
2021/04/17 14:02:36;;;;;;;8.80;1.02;;;12.90;49.90;;;;;;5031231;28;20025;-67
2021/04/17 14:05:02;;;;;;;18.70;1.63;;;12.90;50.10;;;;;;5031819;28;20147;-67
2021/04/17 14:07:27;;;;;;;10.63;1.85;;;12.90;50.80;;;;;;5031813;28;20451;-67
2021/04/17 14:09:53;;;;;;;9.52;1.70;;;12.90;49.90;;;;;;5031191;28;20109;-67
2021/04/17 14:12:19;;;;;;;12.82;2.15;;;12.90;50.00;;;;;;5031816;28;20032;-65
2021/04/17 14:14:45;;;;;;;1.92;1.00;;;12.80;49.90;;;;;;5031005;28;20530;-67
2021/04/17 14:17:11;;;;;;;14.10;1.70;;;12.70;49.30;;;;;;5031364;28;20052;-66
2021/04/17 14:19:37;;;;;;;21.67;2.25;;;12.60;49.40;;;;;;5031176;28;20063;-67
2021/04/17 14:22:03;;;;;;;4.43;1.13;;;12.60;50.00;;;;;;5031416;28;20039;-68
2021/04/17 14:24:28;;;;;;;25.50;2.00;;;12.70;50.40;;;;;;5031190;28;20433;-67
2021/04/17 14:26:54;;;;;;;74.38;3.53;;;12.70;49.80;;;;;;5047101;28;20155;-69
2021/04/17 14:29:21;;;;;;;7.50;1.33;;;12.70;50.50;;;;;;5051360;28;20033;-68
2021/04/17 14:31:47;;;;;;;12.20;1.55;;;12.80;50.50;;;;;;5050796;28;20451;-68
2021/04/17 14:34:13;;;;;;;7.38;1.10;;;12.80;49.60;;;;;;5052831;28;20021;-68
2021/04/17 14:36:39;;;;;;;20.73;3.15;;;12.80;49.80;;;;;;5054425;28;20063;-68
2021/04/17 14:39:07;;;;;;;14.95;3.17;;;12.80;49.80;;;;;;5054770;28;20025;-67
2021/04/17 14:41:33;;;;;;;7.88;3.42;;;12.70;49.40;;;;;;5054033;28;20036;-67
2021/04/17 14:44:04;;;;;;;10.55;3.22;;;12.70;49.90;;;;;;5054732;28;20025;-67
2021/04/17 14:46:30;;;;;;;9.85;1.95;;;12.80;49.40;;;;;;5054883;28;20021;-67
2021/04/17 14:48:56;;;;;;;11.20;3.25;;;12.70;49.30;;;;;;5054673;28;20024;-67
2021/04/17 14:51:22;;;;;;;8.30;1.70;;;12.80;49.50;;;;;;5054408;28;20037;-67
2021/04/17 14:53:47;;;;;;;9.40;2.08;;;12.80;49.10;;;;;;5054577;28;20487;-67
2021/04/17 14:56:13;;;;;;;15.63;1.60;;;12.80;49.20;;;;;;5054454;28;20385;-67
2021/04/17 14:58:41;;;;;;;7.05;1.40;;;12.80;49.30;;;;;;5054005;28;20033;-67
2021/04/17 15:01:06;;;;;;;35.08;2.72;;;12.80;50.90;;;;;;5055044;28;20037;-67
2021/04/17 15:03:32;;;;;;;9.65;1.33;;;12.80;49.10;;;;;;5053768;28;20021;-67
2021/04/17 15:05:58;;;;;;;5.85;1.60;;;12.70;49.40;;;;;;5053711;28;20021;-67
2021/04/17 15:08:24;;;;;;;5.53;1.20;;;12.80;49.20;;;;;;5054123;28;20021;-67
2021/04/17 15:10:50;;;;;;;10.40;1.52;;;12.80;49.80;;;;;;5053965;28;20111;-67
2021/04/17 15:13:16;;;;;;;4.60;1.00;;;12.70;49.50;;;;;;5054445;28;20431;-67
2021/04/17 15:15:41;;;;;;;4.18;1.02;;;12.70;48.80;;;;;;5053805;28;20562;-67
2021/04/17 15:18:07;;;;;;;2.40;0.80;;;12.60;48.90;;;;;;5054275;28;20044;-67
2021/04/17 15:20:34;;;;;;;7.47;1.55;;;12.60;49.40;;;;;;5054074;28;20472;-67
2021/04/17 15:23:01;;;;;;;10.93;1.50;;;12.50;49.40;;;;;;5053879;28;20025;-67
2021/04/17 15:25:27;;;;;;;6.30;1.02;;;12.50;49.50;;;;;;5053877;28;20021;-67
2021/04/17 15:27:52;;;;;;;4.10;1.35;;;12.50;50.10;;;;;;5053692;28;20146;-67
2021/04/17 15:30:19;;;;;;;5.43;1.20;;;12.50;50.20;;;;;;5053771;28;20487;-67
2021/04/17 15:32:44;;;;;;;7.97;1.00;;;12.50;50.20;;;;;;5053596;28;20044;-67
2021/04/17 15:35:11;;;;;;;5.22;1.05;;;12.50;50.00;;;;;;5053552;28;20500;-67
2021/04/17 15:37:40;;;;;;;12.02;1.10;;;12.50;50.20;;;;;;5053564;28;20103;-66
2021/04/17 15:40:07;;;;;;;5.10;1.20;;;12.40;49.90;;;;;;5053537;28;20021;-66
2021/04/17 15:42:33;;;;;;;9.73;1.77;;;12.40;50.50;;;;;;5053524;28;20045;-66
2021/04/17 15:44:59;;;;;;;8.50;1.00;;;12.40;50.30;;;;;;5052564;28;20029;-66
2021/04/17 15:47:25;;;;;;;8.07;0.98;;;12.40;50.70;;;;;;5053280;28;20067;-66
2021/04/17 15:49:53;;;;;;;6.40;1.13;;;12.30;50.60;;;;;;5052253;28;20021;-68
2021/04/17 15:52:18;;;;;;;9.82;1.10;;;12.30;50.40;;;;;;5050160;28;20013;-65
2021/04/17 15:54:44;;;;;;;16.08;1.42;;;12.30;50.50;;;;;;5052962;28;20557;-65
2021/04/17 15:57:19;;;;;;;8.27;1.55;;;12.30;51.00;;;;;;5053082;28;20069;-65
2021/04/17 16:15:35;;;;;;;6.25;1.05;;;12.20;50.90;;;;;;5052845;28;20056;-65
2021/04/17 16:18:09;;;;;;;7.05;1.13;;;12.30;53.00;;;;;;5052565;28;20029;-66
2021/04/17 16:20:36;;;;;;;10.35;1.20;;;12.30;51.40;;;;;;5052815;28;20036;-66
2021/04/17 16:23:02;;;;;;;5.38;1.23;;;12.30;51.10;;;;;;5051395;28;20027;-65
2021/04/17 16:25:28;;;;;;;8.93;1.65;;;12.20;51.50;;;;;;5052642;28;20100;-66
2021/04/17 16:27:54;;;;;;;8.85;1.40;;;12.40;51.80;;;;;;5052358;28;20545;-66
2021/04/17 16:30:24;;;;;;;19.27;1.70;;;12.30;51.50;;;;;;5052590;28;20078;-66
2021/04/17 16:32:51;;;;;;;5.60;1.38;;;12.20;51.80;;;;;;5052325;28;20373;-66
2021/04/17 16:35:16;;;;;;;3.13;1.20;;;12.20;51.60;;;;;;5052442;28;20059;-67
2021/04/17 16:37:42;;;;;;;4.18;1.15;;;12.10;51.80;;;;;;5052416;28;20037;-67
2021/04/17 16:40:08;;;;;;;8.25;1.40;;;12.10;51.90;;;;;;5051910;28;20488;-66
2021/04/17 16:42:34;;;;;;;6.60;1.50;;;12.10;52.10;;;;;;5052287;28;20040;-66
2021/04/17 16:45:01;;;;;;;10.38;1.63;;;12.00;52.00;;;;;;5052292;28;20018;-66
2021/04/17 16:47:27;;;;;;;6.70;1.60;;;12.00;52.50;;;;;;5052754;28;20040;-65
2021/04/17 16:49:53;;;;;;;15.68;2.75;;;12.00;52.30;;;;;;5052495;28;20025;-66
2021/04/17 16:52:18;;;;;;;8.50;1.95;;;12.00;52.80;;;;;;5052405;28;20017;-66
2021/04/17 16:54:44;;;;;;;20.60;3.97;;;12.00;52.90;;;;;;5050943;28;20477;-65
2021/04/17 16:57:10;;;;;;;9.20;2.47;;;12.00;53.30;;;;;;5051019;28;20432;-65
2021/04/17 16:59:37;;;;;;;13.98;3.00;;;12.00;53.10;;;;;;5052036;28;20029;-65
2021/04/17 17:02:03;;;;;;;3.88;1.85;;;12.00;53.30;;;;;;5051956;28;20036;-65
2021/04/17 17:04:29;;;;;;;9.75;2.30;;;11.90;53.10;;;;;;5052304;28;20032;-66
2021/04/17 17:06:55;;;;;;;5.75;1.60;;;11.90;53.70;;;;;;5051997;28;20029;-66
2021/04/17 17:09:21;;;;;;;9.93;2.08;;;11.90;53.60;;;;;;5052171;28;20033;-66
2021/04/17 17:11:46;;;;;;;34.65;3.33;;;11.90;53.90;;;;;;5051812;28;20025;-66
2021/04/17 17:14:12;;;;;;;18.70;2.33;;;11.90;54.40;;;;;;5051795;28;20082;-65
2021/04/17 17:16:38;;;;;;;4.85;1.33;;;11.90;54.70;;;;;;5051775;28;20044;-66
2021/04/17 17:19:04;;;;;;;12.43;1.50;;;11.90;55.10;;;;;;5050549;28;20540;-66